createdAt,value
2023-04-15T00:01:07.678Z,58.80
2023-04-15T00:04:11.642Z,58.80
2023-04-15T00:07:19.538Z,58.90
2023-04-15T00:10:23.776Z,59.00
2023-04-15T00:13:29.724Z,59.00
2023-04-15T00:16:33.658Z,59.10
2023-04-15T00:19:40.376Z,59.10
2023-04-15T00:22:46.929Z,59.20
2023-04-15T00:25:52.994Z,59.30
2023-04-15T00:28:56.867Z,59.30
2023-04-15T00:32:02.860Z,59.40
2023-04-15T00:35:07.079Z,59.50
2023-04-15T00:38:15.081Z,59.50
2023-04-15T00:41:21.030Z,59.40
2023-04-15T00:44:27.324Z,59.50
2023-04-15T00:47:31.898Z,59.70
2023-04-15T00:50:37.824Z,59.70
2023-04-15T00:53:46.899Z,59.90
2023-04-15T00:56:52.901Z,59.90
2023-04-15T00:59:57.793Z,60.00
2023-04-15T01:03:03.864Z,60.00
2023-04-15T01:06:08.577Z,60.10
2023-04-15T01:09:16.521Z,60.30
2023-04-15T01:12:22.091Z,60.30
2023-04-15T01:15:28.044Z,60.40
2023-04-15T01:18:32.299Z,60.50
2023-04-15T01:21:39.463Z,60.40
2023-04-15T01:24:48.919Z,60.40
2023-04-15T01:27:57.847Z,60.60
2023-04-15T01:31:09.312Z,60.70
2023-04-15T01:34:18.068Z,61.50
2023-04-15T01:37:40.782Z,60.80
2023-04-15T01:40:46.639Z,60.90
2023-04-15T01:43:54.139Z,60.90
2023-04-15T01:47:01.419Z,61.10
2023-04-15T01:50:07.995Z,61.20
2023-04-15T01:53:15.376Z,61.20
2023-04-15T01:56:20.521Z,61.30
2023-04-15T01:59:31.436Z,61.30
2023-04-15T02:02:37.554Z,61.40
2023-04-15T02:05:44.890Z,61.40
2023-04-15T02:08:50.165Z,61.50
2023-04-15T02:11:57.776Z,61.60
2023-04-15T02:15:05.218Z,61.60
2023-04-15T02:18:12.325Z,61.70
2023-04-15T02:21:18.440Z,61.70
2023-04-15T02:24:25.667Z,61.70
2023-04-15T02:27:30.806Z,61.80
2023-04-15T02:30:40.349Z,61.80
2023-04-15T02:33:46.168Z,62.00
2023-04-15T02:36:56.637Z,61.90
2023-04-15T02:40:01.810Z,62.00
2023-04-15T02:43:09.197Z,62.00
2023-04-15T02:46:16.405Z,62.20
2023-04-15T02:49:23.542Z,62.20
2023-04-15T02:52:28.755Z,62.30
2023-04-15T02:55:36.015Z,62.30
2023-04-15T02:58:41.420Z,62.40
2023-04-15T03:01:50.947Z,62.50
2023-04-15T03:04:56.752Z,62.50
2023-04-15T03:08:04.042Z,62.60
2023-04-15T03:11:09.544Z,62.60
2023-04-15T03:14:17.416Z,62.60
2023-04-15T03:17:27.353Z,62.70
2023-04-15T03:20:35.435Z,62.80
2023-04-15T03:23:41.313Z,62.80
2023-04-15T03:26:48.545Z,62.80
2023-04-15T03:29:56.305Z,62.90
2023-04-15T03:33:08.042Z,62.90
2023-04-15T03:36:13.885Z,63.00
2023-04-15T03:39:21.033Z,63.10
2023-04-15T03:42:26.564Z,63.10
2023-04-15T03:45:33.888Z,63.20
2023-04-15T03:48:40.959Z,63.20
2023-04-15T03:51:48.136Z,63.30
2023-04-15T03:54:53.255Z,63.30
2023-04-15T03:58:00.401Z,63.40
2023-04-15T04:01:05.536Z,63.40
2023-04-15T04:04:14.675Z,63.40
2023-04-15T04:07:20.272Z,64.20
2023-04-15T04:10:28.216Z,63.60
2023-04-15T04:13:33.365Z,63.60
2023-04-15T04:16:40.665Z,63.50
2023-04-15T04:19:47.951Z,63.60
2023-04-15T04:22:55.090Z,63.60
2023-04-15T04:26:00.578Z,63.70
2023-04-15T04:29:07.758Z,63.70
2023-04-15T04:32:13.013Z,63.70
2023-04-15T04:35:22.424Z,63.80
2023-04-15T04:38:27.536Z,63.90
2023-04-15T04:41:34.878Z,63.80
2023-04-15T04:44:39.960Z,63.80
2023-04-15T04:47:47.968Z,63.90
2023-04-15T04:50:55.227Z,63.90
2023-04-15T04:54:03.658Z,64.00
2023-04-15T04:57:09.133Z,64.10
2023-04-15T05:00:16.667Z,64.20
2023-04-15T05:03:22.032Z,64.10
2023-04-15T05:06:32.227Z,64.20
2023-04-15T05:09:37.697Z,64.30
2023-04-15T05:12:45.112Z,64.30
2023-04-15T05:15:50.209Z,64.40
2023-04-15T05:18:57.409Z,64.50
2023-04-15T05:22:04.467Z,64.50
2023-04-15T05:25:11.940Z,64.60
2023-04-15T05:28:17.160Z,64.60
2023-04-15T05:31:24.420Z,64.60
2023-04-15T05:34:29.608Z,64.70
2023-04-15T05:37:38.747Z,64.70
2023-04-15T05:40:43.942Z,64.70
2023-04-15T05:43:53.338Z,64.80
2023-04-15T05:46:58.469Z,64.80
2023-04-15T05:50:06.826Z,64.80
2023-04-15T05:53:13.892Z,64.90
2023-04-15T05:56:21.830Z,64.90
2023-04-15T05:59:27.880Z,64.90
2023-04-15T06:02:35.201Z,65.00
2023-04-15T06:05:40.771Z,65.00
2023-04-15T06:08:49.872Z,65.10
2023-04-15T06:11:55.793Z,65.10
2023-04-15T06:15:03.470Z,65.20
2023-04-15T06:18:08.633Z,65.20
2023-04-15T06:21:15.890Z,65.30
2023-04-15T06:24:22.960Z,65.40
2023-04-15T06:27:30.168Z,65.50
2023-04-15T06:30:36.389Z,65.50
2023-04-15T06:33:43.699Z,65.60
2023-04-15T06:36:48.876Z,65.70
2023-04-15T06:39:57.915Z,66.40
2023-04-15T06:43:04.370Z,65.90
2023-04-15T06:46:11.830Z,65.90
2023-04-15T06:49:17.505Z,65.90
2023-04-15T06:52:24.642Z,66.00
2023-04-15T06:55:31.886Z,66.10
2023-04-15T06:58:39.101Z,66.20
2023-04-15T07:01:44.289Z,66.20
2023-04-15T07:04:51.412Z,66.20
2023-04-15T07:07:56.694Z,66.40
2023-04-15T07:11:05.887Z,66.30
2023-04-15T07:14:11.095Z,66.50
2023-04-15T07:17:18.327Z,66.50
2023-04-15T07:20:23.491Z,66.50
2023-04-15T07:23:30.983Z,66.60
2023-04-15T07:26:38.048Z,66.70
2023-04-15T07:29:45.264Z,66.80
2023-04-15T07:32:50.474Z,66.80
2023-04-15T07:35:57.693Z,66.80
2023-04-15T07:39:04.107Z,66.80
2023-04-15T07:42:13.422Z,66.90
2023-04-15T07:45:18.632Z,66.90
2023-04-15T07:48:26.039Z,66.90
2023-04-15T07:51:31.760Z,67.00
2023-04-15T07:54:42.004Z,67.00
2023-04-15T07:57:49.972Z,67.00
2023-04-15T08:00:57.187Z,67.10
2023-04-15T08:04:02.725Z,67.10
2023-04-15T08:07:10.031Z,67.10
2023-04-15T08:10:15.843Z,67.10
2023-04-15T08:13:24.993Z,67.20
2023-04-15T08:16:30.210Z,67.20
2023-04-15T08:19:37.395Z,67.20
2023-04-15T08:22:42.557Z,67.30
2023-04-15T08:25:49.827Z,67.20
2023-04-15T08:28:57.589Z,67.30
2023-04-15T08:32:05.066Z,67.30
2023-04-15T08:35:11.047Z,67.30
2023-04-15T08:38:18.426Z,67.30
2023-04-15T08:41:25.770Z,67.30
2023-04-15T08:44:37.820Z,67.30
2023-04-15T08:47:46.003Z,67.30
2023-04-15T08:50:53.709Z,67.30
2023-04-15T08:53:59.125Z,67.30
2023-04-15T08:57:06.789Z,67.30
2023-04-15T09:00:15.652Z,67.30
2023-04-15T09:03:24.304Z,67.30
2023-04-15T09:06:29.472Z,67.20
2023-04-15T09:09:39.688Z,67.30
2023-04-15T09:12:44.923Z,67.20
2023-04-15T09:15:54.800Z,67.20
2023-04-15T09:19:00.151Z,67.20
2023-04-15T09:22:07.885Z,67.20
2023-04-15T09:25:29.399Z,67.20
2023-04-15T09:28:43.889Z,67.30
2023-04-15T09:31:51.011Z,67.10
2023-04-15T09:34:58.207Z,67.20
2023-04-15T09:38:07.671Z,67.10
2023-04-15T09:41:20.206Z,67.20
2023-04-15T09:44:25.762Z,67.10
2023-04-15T09:47:35.356Z,67.10
2023-04-15T09:50:44.565Z,67.20
2023-04-15T09:53:58.041Z,67.10
2023-04-15T09:57:07.763Z,67.10
2023-04-15T10:00:16.142Z,67.10
2023-04-15T10:03:25.447Z,67.10
2023-04-15T10:06:33.018Z,67.10
2023-04-15T10:09:39.836Z,67.00
2023-04-15T10:12:47.689Z,67.00
2023-04-15T10:15:56.892Z,67.00
2023-04-15T10:19:09.101Z,67.10
2023-04-15T10:22:15.776Z,67.10
2023-04-15T10:25:24.009Z,67.00
2023-04-15T10:28:29.533Z,67.00
2023-04-15T10:31:37.969Z,67.00
2023-04-15T10:34:47.093Z,67.00
2023-04-15T10:37:54.297Z,67.00
2023-04-15T10:41:14.612Z,67.00
2023-04-15T10:44:21.811Z,67.10
2023-04-15T10:47:28.038Z,67.00
2023-04-15T10:50:39.421Z,67.00
2023-04-15T10:53:44.737Z,67.00
2023-04-15T10:56:53.842Z,66.90
2023-04-15T11:00:07.151Z,66.90
2023-04-15T11:03:15.170Z,66.90
2023-04-15T11:06:22.467Z,66.90
2023-04-15T11:09:34.124Z,66.90
2023-04-15T11:12:39.541Z,66.90
2023-04-15T11:15:47.662Z,66.90
2023-04-15T11:18:57.007Z,66.80
2023-04-15T11:22:10.642Z,66.90
2023-04-15T11:25:24.413Z,66.90
2023-04-15T11:28:32.636Z,66.90
2023-04-15T11:31:37.806Z,66.80
2023-04-15T11:34:48.465Z,66.80
2023-04-15T11:37:56.121Z,66.80
2023-04-15T11:41:03.376Z,66.90
2023-04-15T11:44:18.173Z,66.90
2023-04-15T11:47:25.516Z,66.90
2023-04-15T11:50:30.654Z,66.90
2023-04-15T11:53:44.208Z,66.90
2023-04-15T11:56:54.056Z,66.90
2023-04-15T11:59:59.983Z,66.90
2023-04-15T12:03:18.762Z,66.80
2023-04-15T12:06:27.301Z,66.70
2023-04-15T12:09:39.356Z,66.70
2023-04-15T12:12:45.322Z,66.80
2023-04-15T12:15:51.056Z,66.90
2023-04-15T12:18:58.871Z,66.80
2023-04-15T12:22:05.118Z,66.80
2023-04-15T12:25:13.046Z,66.80
2023-04-15T12:28:18.905Z,66.90
2023-04-15T12:31:25.051Z,66.80
2023-04-15T12:34:30.999Z,66.80
2023-04-15T12:37:36.943Z,67.00
2023-04-15T12:40:42.777Z,67.00
2023-04-15T12:43:51.036Z,67.00
2023-04-15T12:46:55.244Z,67.00
2023-04-15T12:50:01.240Z,67.00
2023-04-15T12:53:08.865Z,67.00
2023-04-15T12:56:16.709Z,67.00
2023-04-15T12:59:20.988Z,67.10
2023-04-15T13:02:28.392Z,67.00
2023-04-15T13:05:32.550Z,67.00
2023-04-15T13:08:42.667Z,67.00
2023-04-15T13:11:54.120Z,67.00
2023-04-15T13:15:00.098Z,67.00
2023-04-15T13:18:03.869Z,67.10
2023-04-15T13:21:10.465Z,67.00
2023-04-15T13:24:14.392Z,67.00
2023-04-15T13:27:22.791Z,67.10
2023-04-15T13:30:27.056Z,67.10
2023-04-15T13:33:33.165Z,67.20
2023-04-15T13:36:37.128Z,67.20
2023-04-15T13:39:43.182Z,67.30
2023-04-15T13:42:48.759Z,67.20
2023-04-15T13:45:54.838Z,67.20
2023-04-15T13:48:58.832Z,67.20
2023-04-15T13:52:04.925Z,67.30
2023-04-15T13:55:20.490Z,67.40
2023-04-15T13:58:29.913Z,67.40
2023-04-15T14:01:36.594Z,67.50
2023-04-15T14:04:42.577Z,67.50
2023-04-15T14:07:46.319Z,67.50
2023-04-15T14:10:52.273Z,67.50
2023-04-15T14:13:57.895Z,67.50
2023-04-15T14:17:04.983Z,67.50
2023-04-15T14:20:10.463Z,67.60
2023-04-15T14:23:16.362Z,67.70
2023-04-15T14:26:20.305Z,67.70
2023-04-15T14:29:28.129Z,67.70
2023-04-15T14:32:32.066Z,67.70
2023-04-15T14:35:38.577Z,67.80
2023-04-15T14:38:42.522Z,67.90
2023-04-15T14:41:48.520Z,68.00
2023-04-15T14:44:54.172Z,68.10
2023-04-15T14:48:01.074Z,67.90
2023-04-15T14:51:05.153Z,67.80
2023-04-15T14:54:10.872Z,67.80
2023-04-15T14:57:14.875Z,67.70
2023-04-15T15:00:22.482Z,67.70
2023-04-15T15:03:26.532Z,67.60
2023-04-15T15:06:32.337Z,67.60
2023-04-15T15:09:36.275Z,67.50
2023-04-15T15:12:41.927Z,67.50
2023-04-15T15:15:48.874Z,67.50
2023-04-15T15:18:54.570Z,67.50
2023-04-15T15:21:58.349Z,67.50
2023-04-15T15:25:04.035Z,67.50
2023-04-15T15:28:08.227Z,67.60
2023-04-15T15:31:15.865Z,67.60
2023-04-15T15:34:19.593Z,67.60
2023-04-15T15:37:25.500Z,67.60
2023-04-15T15:40:29.220Z,67.50
2023-04-15T15:43:35.086Z,67.60
2023-04-15T15:46:40.854Z,67.60
2023-04-15T15:49:48.897Z,67.60
2023-04-15T15:52:52.597Z,67.60
2023-04-15T15:55:58.307Z,67.50
2023-04-15T15:59:02.178Z,67.50
2023-04-15T16:02:10.273Z,67.50
2023-04-15T16:05:14.176Z,67.60
2023-04-15T16:08:20.339Z,67.60
2023-04-15T16:11:24.470Z,67.50
2023-04-15T16:14:30.167Z,67.60
2023-04-15T16:17:35.755Z,67.70
2023-04-15T16:20:41.516Z,67.60
2023-04-15T16:23:45.328Z,67.60
2023-04-15T16:26:51.027Z,67.70
2023-04-15T16:29:55.254Z,67.70
2023-04-15T16:33:02.903Z,67.70
2023-04-15T16:36:06.842Z,67.70
2023-04-15T16:39:12.566Z,67.70
2023-04-15T16:42:16.676Z,67.80
2023-04-15T16:45:22.381Z,67.70
2023-04-15T16:48:28.383Z,67.70
2023-04-15T16:51:34.132Z,67.80
2023-04-15T16:54:40.761Z,67.70
2023-04-15T16:58:00.535Z,67.80
2023-04-15T17:01:06.640Z,67.80
2023-04-15T17:04:14.600Z,67.80
2023-04-15T17:07:18.405Z,67.80
2023-04-15T17:10:24.164Z,67.90
2023-04-15T17:13:27.919Z,67.90
2023-04-15T17:16:33.725Z,67.90
2023-04-15T17:19:39.412Z,67.90
2023-04-15T17:22:49.364Z,68.00
2023-04-15T17:25:53.288Z,67.90
2023-04-15T17:28:59.128Z,68.00
2023-04-15T17:32:10.917Z,68.00
2023-04-15T17:35:38.505Z,68.00
2023-04-15T17:39:02.214Z,68.10
2023-04-15T17:42:28.208Z,68.10
2023-04-15T17:45:52.257Z,68.10
2023-04-15T17:49:17.941Z,68.10
2023-04-15T17:52:43.565Z,68.10
2023-04-15T17:56:09.253Z,68.10
2023-04-15T17:59:33.273Z,68.20
2023-04-15T18:02:58.972Z,68.10
2023-04-15T18:06:22.850Z,68.20
2023-04-15T18:09:50.998Z,68.20
2023-04-15T18:13:14.651Z,68.20
2023-04-15T18:16:42.129Z,68.20
2023-04-15T18:20:06.163Z,68.30
2023-04-15T18:23:11.919Z,68.30
2023-04-15T18:26:17.583Z,68.30
2023-04-15T18:29:23.284Z,68.30
2023-04-15T18:32:31.651Z,68.40
2023-04-15T18:35:37.710Z,68.30
2023-04-15T18:38:41.473Z,68.30
2023-04-15T18:41:49.076Z,68.30
2023-04-15T18:44:54.089Z,68.40
2023-04-15T18:47:59.848Z,68.40
2023-04-15T18:51:03.627Z,68.40
2023-04-15T18:54:09.360Z,68.40
2023-04-15T18:57:24.571Z,68.50
2023-04-15T19:00:41.138Z,68.50
2023-04-15T19:03:45.482Z,68.50
2023-04-15T19:06:51.239Z,68.80
2023-04-15T19:09:55.006Z,68.60
2023-04-15T19:13:04.155Z,68.70
2023-04-15T19:16:08.184Z,68.70
2023-04-15T19:19:16.317Z,68.70
2023-04-15T19:22:20.105Z,68.80
2023-04-15T19:25:25.866Z,68.80
2023-04-15T19:28:31.884Z,68.70
2023-04-15T19:31:37.650Z,68.80
2023-04-15T19:34:41.420Z,68.80
2023-04-15T19:37:48.427Z,68.80
2023-04-15T19:40:52.062Z,68.80
2023-04-15T19:43:59.879Z,68.80
2023-04-15T19:47:03.614Z,68.80
2023-04-15T19:50:10.791Z,68.90
2023-04-15T19:53:14.587Z,69.00
2023-04-15T19:56:20.387Z,68.90
2023-04-15T19:59:26.063Z,69.00
2023-04-15T20:02:31.929Z,69.00
2023-04-15T20:05:35.690Z,69.00
2023-04-15T20:08:41.379Z,69.00
2023-04-15T20:12:06.166Z,69.00
2023-04-15T20:15:13.009Z,69.00
2023-04-15T20:18:16.862Z,69.00
2023-04-15T20:21:22.571Z,69.10
2023-04-15T20:24:26.293Z,69.10
2023-04-15T20:27:32.027Z,69.10
2023-04-15T20:30:38.982Z,69.10
2023-04-15T20:33:44.709Z,69.10
2023-04-15T20:36:48.465Z,69.10
2023-04-15T20:39:54.226Z,69.10
2023-04-15T20:42:57.900Z,69.10
2023-04-15T20:46:17.875Z,69.20
2023-04-15T20:49:28.939Z,69.20
2023-04-15T20:52:34.627Z,69.20
2023-04-15T20:55:38.335Z,69.30
2023-04-15T20:58:44.060Z,69.30
2023-04-15T21:01:49.841Z,69.20
2023-04-15T21:04:55.809Z,69.20
2023-04-15T21:07:59.482Z,69.30
2023-04-15T21:11:05.162Z,69.40
2023-04-15T21:14:09.368Z,69.30
2023-04-15T21:17:17.046Z,69.30
2023-04-15T21:20:20.691Z,69.30
2023-04-15T21:23:28.072Z,69.30
2023-04-15T21:26:31.792Z,69.30
2023-04-15T21:29:57.458Z,69.40
2023-04-15T21:33:03.132Z,69.40
2023-04-15T21:36:08.924Z,69.50
2023-04-15T21:39:12.593Z,69.40
2023-04-15T21:42:38.267Z,69.40
2023-04-15T21:45:43.866Z,69.40
2023-04-15T21:49:11.366Z,69.40
2023-04-15T21:52:15.076Z,69.40
2023-04-15T21:55:20.797Z,69.40
2023-04-15T21:58:24.512Z,69.50
2023-04-15T22:01:30.459Z,69.50
2023-04-15T22:04:36.115Z,69.50
2023-04-15T22:07:41.830Z,69.50
2023-04-15T22:10:45.517Z,69.50
2023-04-15T22:13:51.216Z,69.50
2023-04-15T22:16:57.061Z,69.50
2023-04-15T22:20:04.878Z,69.60
2023-04-15T22:23:09.383Z,69.60
2023-04-15T22:26:15.087Z,69.60
2023-04-15T22:29:18.711Z,69.60
2023-04-15T22:32:24.467Z,69.60
2023-04-15T22:35:30.052Z,69.60
2023-04-15T22:38:35.773Z,69.70
2023-04-15T22:41:39.443Z,69.60
2023-04-15T22:44:45.163Z,69.70
2023-04-15T22:47:48.824Z,69.70
2023-04-15T22:50:56.473Z,69.70
2023-04-15T22:54:00.183Z,69.80
2023-04-15T22:57:05.896Z,69.80
2023-04-15T23:00:10.232Z,69.80
2023-04-15T23:03:16.022Z,69.80
2023-04-15T23:06:21.701Z,69.90
2023-04-15T23:09:27.419Z,69.90
2023-04-15T23:12:31.067Z,69.90
2023-04-15T23:15:36.769Z,69.90
2023-04-15T23:18:40.464Z,69.90
2023-04-15T23:21:48.136Z,69.90
2023-04-15T23:24:51.861Z,69.90
2023-04-15T23:27:58.011Z,69.90
2023-04-15T23:31:01.664Z,70.00
2023-04-15T23:34:07.281Z,70.00
2023-04-15T23:37:12.922Z,70.00
2023-04-15T23:40:18.673Z,70.10
2023-04-15T23:43:22.403Z,70.10
2023-04-15T23:46:28.159Z,70.10
2023-04-15T23:49:31.958Z,70.10
2023-04-15T23:52:39.551Z,70.10
2023-04-15T23:55:43.254Z,70.10
2023-04-15T23:58:49.086Z,70.20
